Terminal Aerodrome Forecast
Issued by NWS Paducah, KY

Home | Current Version | Previous Version | Text Only | Print | Product List | Glossary Off
Versions: 1 2 3 4 5 6 7 8 9 10 11 12 13 14 15 16 17

000
FTUS43 KPAH 190500
TAFPAH
TAF
KPAH 190520Z 1906/2006 05002KT P6SM FEW050
      TEMPO 1908/1912 5SM BR
     FM191400 10005KT P6SM FEW050=

USA.gov is the U.S. government's official web portal to all federal, state and local government web resources and services.